Time;durP1;ratioP1;P1;durP2;ratioP2;P2;SDS_P1;SDS_P2;PMS_P1;PMS_P2;Temp;Humidity;BMP_temperature;BMP_pressure;BME280_temperature;BME280_humidity;BME280_pressure;Samples;Min_cycle;Max_cycle;Signal;HPM_P1;HPM_P2
2023/05/15 00:01:12;;;;;;;;;;;;;;;22.43;57.53;100589.59;2329724;75;49604;-77
2023/05/15 00:04:13;;;;;;;;;;;;;;;22.42;57.45;100585.25;2356654;75;50501;-77
2023/05/15 00:07:15;;;;;;;;;;;;;;;22.42;57.43;100586.59;2356431;75;50391;-76
2023/05/15 00:10:16;;;;;;;;;;;;;;;22.43;57.46;100576.11;2354794;75;50388;-76
2023/05/15 00:13:18;;;;;;;;;;;;;;;22.41;57.64;100570.13;2328246;75;51581;-77
2023/05/15 00:16:20;;;;;;;;;;;;;;;22.40;57.52;100567.92;2356401;74;51314;-76
2023/05/15 00:19:21;;;;;;;;;;;;;;;22.39;57.56;100553.62;2358278;75;50627;-76
2023/05/15 00:22:23;;;;;;;;;;;;;;;22.41;57.55;100553.95;2356074;74;51552;-76
2023/05/15 00:25:25;;;;;;;;;;;;;;;22.40;57.52;100549.05;2326322;75;51438;-77
2023/05/15 00:28:26;;;;;;;;;;;;;;;22.40;57.50;100545.00;2352784;74;50593;-77
2023/05/15 00:31:28;;;;;;;;;;;;;;;22.39;57.66;100538.79;2353152;74;51461;-75
2023/05/15 00:34:29;;;;;;;;;;;;;;;22.39;57.65;100552.27;2351149;75;51489;-76
2023/05/15 00:37:31;;;;;;;;;;;;;;;22.40;57.72;100539.61;2378453;74;52383;-76
2023/05/15 00:40:32;;;;;;;;;;;;;;;22.38;57.65;100534.45;2353146;75;51512;-75
2023/05/15 00:43:34;;;;;;;;;;;;;;;22.38;57.61;100530.94;2351329;74;50278;-77
2023/05/15 00:46:36;;;;;;;;;;;;;;;22.39;57.69;100525.31;2351000;75;51460;-76
2023/05/15 00:49:37;;;;;;;;;;;;;;;22.38;57.66;100527.71;2380094;74;51084;-76
2023/05/15 00:52:39;;;;;;;;;;;;;;;22.37;57.79;100520.64;2356820;75;50734;-76
2023/05/15 00:55:41;;;;;;;;;;;;;;;22.39;57.74;100515.88;2353126;74;50421;-75
2023/05/15 00:58:42;;;;;;;;;;;;;;;22.37;57.64;100509.86;2356067;74;50819;-76
2023/05/15 01:01:44;;;;;;;;;;;;;;;22.39;57.71;100518.58;2326627;75;51672;-75
2023/05/15 01:04:46;;;;;;;;;;;;;;;22.39;57.74;100504.27;2351090;74;51546;-76
2023/05/15 01:07:49;;;;;;;;;;;;;;;22.39;57.77;100505.09;2350612;74;51418;-76
2023/05/15 01:10:50;;;;;;;;;;;;;;;22.39;57.78;100505.09;2351490;74;51579;-73
2023/05/15 01:13:52;;;;;;;;;;;;;;;22.39;57.85;100504.27;2382350;74;50136;-76
2023/05/15 01:16:54;;;;;;;;;;;;;;;22.41;57.82;100500.03;2352611;74;53887;-75
2023/05/15 01:19:56;;;;;;;;;;;;;;;22.39;57.73;100498.88;2352061;74;50702;-75
2023/05/15 01:23:08;;;;;;;;;;;;;;;22.39;57.78;100502.39;2354357;74;51524;-76
2023/05/15 01:26:23;;;;;;;;;;;;;;;22.38;57.76;100506.67;2357730;75;49942;-73
2023/05/15 01:29:39;;;;;;;;;;;;;;;22.37;57.79;100499.08;2344035;75;50672;-77
2023/05/15 01:33:01;;;;;;;;;;;;;;;22.37;57.78;100497.73;2355146;75;51701;-77
2023/05/15 01:36:08;;;;;;;;;;;;;;;22.37;57.81;100496.38;2355186;75;50674;-76
2023/05/15 01:39:07;;;;;;;;;;;;;;;22.36;57.86;100503.35;2342443;75;22490;-77
2023/05/15 01:42:13;;;;;;;;;;;;;;;22.35;57.92;100494.94;2343768;76;50363;-77
2023/05/15 01:45:14;;;;;;;;;;;;;;;22.35;57.83;100506.58;2343590;76;50688;-77
2023/05/15 01:48:16;;;;;;;;;;;;;;;22.36;57.91;100504.17;2352538;74;50665;-75
2023/05/15 01:51:17;;;;;;;;;;;;;;;22.35;58.14;100501.18;2327441;75;52551;-75
2023/05/15 01:54:19;;;;;;;;;;;;;;;22.38;57.51;100494.02;2354274;75;50225;-76
2023/05/15 01:57:21;;;;;;;;;;;;;;;22.31;57.06;100490.50;2354038;74;50767;-77
2023/05/15 02:00:22;;;;;;;;;;;;;;;22.28;57.29;100482.84;2354247;74;50730;-76
2023/05/15 02:03:24;;;;;;;;;;;;;;;22.28;57.03;100477.45;2329120;75;50202;-77
2023/05/15 02:06:25;;;;;;;;;;;;;;;22.24;57.29;100466.78;2353828;74;51388;-76
2023/05/15 02:09:27;;;;;;;;;;;;;;;22.26;57.16;100474.14;2329149;75;52508;-77
2023/05/15 02:12:28;;;;;;;;;;;;;;;22.27;57.10;100463.68;2353926;74;51518;-76
2023/05/15 02:15:30;;;;;;;;;;;;;;;22.27;57.19;100458.78;2329914;75;51158;-77
2023/05/15 02:18:32;;;;;;;;;;;;;;;22.27;57.26;100456.94;2354239;75;50271;-77
2023/05/15 02:21:34;;;;;;;;;;;;;;;22.28;57.42;100448.33;2356947;74;50339;-76
2023/05/15 02:24:35;;;;;;;;;;;;;;;22.28;57.30;100449.16;2354914;75;50021;-76
2023/05/15 02:27:38;;;;;;;;;;;;;;;22.28;57.34;100442.94;2326399;75;52595;-76
2023/05/15 02:30:42;;;;;;;;;;;;;;;22.27;57.53;100452.90;2350467;75;51523;-75
2023/05/15 02:33:54;;;;;;;;;;;;;;;22.28;57.65;100446.45;2350651;75;51719;-77
2023/05/15 02:36:56;;;;;;;;;;;;;;;22.28;57.57;100449.16;2351226;75;51460;-77
2023/05/15 02:39:58;;;;;;;;;;;;;;;22.28;57.61;100443.77;2378125;73;51683;-75
2023/05/15 02:43:00;;;;;;;;;;;;;;;22.27;57.70;100439.92;2350679;75;50340;-75
2023/05/15 02:46:01;;;;;;;;;;;;;;;22.28;57.86;100440.24;2350459;75;50305;-75
2023/05/15 02:49:03;;;;;;;;;;;;;;;22.27;58.01;100444.81;2349870;75;50220;-76
2023/05/15 02:52:06;;;;;;;;;;;;;;;22.27;57.96;100444.81;2384444;74;51863;-76
2023/05/15 02:55:08;;;;;;;;;;;;;;;22.25;58.03;100442.84;2350468;75;51534;-75
2023/05/15 02:58:09;;;;;;;;;;;;;;;;;;2354862;74;50092;-76
2023/05/15 03:01:11;;;;;;;;;;;;;;;22.26;57.83;100427.50;2350784;75;50680;-75
2023/05/15 03:04:15;;;;;;;;;;;;;;;22.26;57.67;100421.58;2350177;75;50318;-75
2023/05/15 03:07:17;;;;;;;;;;;;;;;22.26;57.57;100419.41;2350470;74;51586;-75
2023/05/15 03:10:20;;;;;;;;;;;;;;;22.24;57.56;100418.27;2355379;75;51409;-77
2023/05/15 03:13:21;;;;;;;;;;;;;;;22.24;57.57;100414.22;2355734;75;50664;-75
2023/05/15 03:16:23;;;;;;;;;;;;;;;22.25;57.66;100417.77;2351028;75;50649;-77
2023/05/15 03:19:24;;;;;;;;;;;;;;;22.24;57.69;100411.52;2328218;74;52569;-78
2023/05/15 03:22:26;;;;;;;;;;;;;;;22.23;57.67;100403.14;2355669;75;50632;-76
2023/05/15 03:25:28;;;;;;;;;;;;;;;22.23;57.64;100401.80;2354003;75;51541;-76
2023/05/15 03:28:29;;;;;;;;;;;;;;;22.23;57.80;100404.49;2353707;75;50675;-76
2023/05/15 03:31:31;;;;;;;;;;;;;;;22.22;57.81;100397.95;2309788;75;52479;-76
2023/05/15 03:34:32;;;;;;;;;;;;;;;22.22;57.94;100397.45;2353771;75;50625;-75
2023/05/15 03:37:34;;;;;;;;;;;;;;;22.21;58.08;100391.74;2353363;75;51491;-76
2023/05/15 03:40:37;;;;;;;;;;;;;;;22.21;58.05;100394.44;2353325;75;51435;-75
2023/05/15 03:43:39;;;;;;;;;;;;;;;22.22;58.04;100388.03;2328645;75;51799;-75
2023/05/15 03:46:41;;;;;;;;;;;;;;;22.22;58.00;100391.22;2355526;75;50615;-76
2023/05/15 03:49:42;;;;;;;;;;;;;;;22.21;57.94;100389.05;2354059;75;51511;-75
2023/05/15 03:52:44;;;;;;;;;;;;;;;22.20;57.94;100379.32;2351826;74;51474;-74
2023/05/15 03:55:45;;;;;;;;;;;;;;;22.22;57.82;100387.17;2326712;75;52481;-76
2023/05/15 03:58:47;;;;;;;;;;;;;;;22.23;57.80;100391.55;2350307;74;50226;-78
2023/05/15 04:01:48;;;;;;;;;;;;;;;22.21;57.84;100387.70;2350851;75;50236;-75
2023/05/15 04:04:51;;;;;;;;;;;;;;;22.21;57.87;100390.39;2355203;75;50335;-72
2023/05/15 04:07:52;;;;;;;;;;;;;;;;;;2328176;75;52412;-76
2023/05/15 04:10:53;;;;;;;;;;;;;;;22.23;57.93;100388.32;2350597;75;50310;-75
2023/05/15 04:13:55;;;;;;;;;;;;;;;22.21;57.90;100385.00;2355139;75;50730;-76
2023/05/15 04:16:57;;;;;;;;;;;;;;;22.23;57.87;100386.97;2350301;75;51530;-75
2023/05/15 04:19:58;;;;;;;;;;;;;;;22.22;57.89;100375.90;2375446;74;50078;-74
2023/05/15 04:23:00;;;;;;;;;;;;;;;22.21;57.85;100379.61;2354661;75;50619;-73
2023/05/15 04:26:02;;;;;;;;;;;;;;;22.22;57.79;100377.25;2350457;75;51413;-75
2023/05/15 04:29:03;;;;;;;;;;;;;;;22.22;57.72;100373.70;2350371;75;50728;-75
2023/05/15 04:32:05;;;;;;;;;;;;;;;22.22;57.74;100381.78;2350534;75;51465;-75
2023/05/15 04:35:08;;;;;;;;;;;;;;;22.21;57.75;100375.57;2354661;75;50687;-75
2023/05/15 04:38:10;;;;;;;;;;;;;;;22.22;57.76;100381.78;2350310;75;51629;-75
2023/05/15 04:41:12;;;;;;;;;;;;;;;22.22;57.87;100381.78;2355116;75;51415;-75
2023/05/15 04:44:13;;;;;;;;;;;;;;;22.23;57.79;100388.84;2326594;75;52561;-74
2023/05/15 04:47:15;;;;;;;;;;;;;;;22.23;57.84;100386.16;2354671;75;51441;-75
2023/05/15 04:50:17;;;;;;;;;;;;;;;22.23;57.85;100388.32;2352801;75;51460;-75
2023/05/15 04:53:18;;;;;;;;;;;;;;;22.23;57.74;100380.77;2356266;74;51441;-77
2023/05/15 04:56:20;;;;;;;;;;;;;;;22.26;57.77;100369.02;2327461;75;52330;-76
2023/05/15 04:59:23;;;;;;;;;;;;;;;22.26;56.66;100372.24;2355848;75;50671;-75
2023/05/15 05:02:25;;;;;;;;;;;;;;;22.20;55.06;100373.11;2360460;75;22366;-75
2023/05/15 05:05:27;;;;;;;;;;;;;;;22.16;54.68;100366.74;2357061;74;52255;-76
2023/05/15 05:08:28;;;;;;;;;;;;;;;22.15;54.68;100369.67;2356591;75;51478;-76
2023/05/15 05:11:30;;;;;;;;;;;;;;;22.22;54.26;100365.61;2321044;75;51555;-76
2023/05/15 05:14:31;;;;;;;;;;;;;;;22.26;54.43;100356.89;2358318;75;50425;-76
2023/05/15 05:17:33;;;;;;;;;;;;;;;22.27;54.69;100355.87;2358530;75;50286;-75
2023/05/15 05:20:35;;;;;;;;;;;;;;;22.34;54.34;100350.42;2362904;75;50669;-74
2023/05/15 05:23:37;;;;;;;;;;;;;;;22.38;53.42;100351.14;2333747;75;51238;-74
2023/05/15 05:26:38;;;;;;;;;;;;;;;22.41;52.74;100349.88;2361544;75;50358;-76
2023/05/15 05:29:40;;;;;;;;;;;;;;;22.42;52.23;100342.61;2366229;74;50609;-76
2023/05/15 05:32:41;;;;;;;;;;;;;;;22.46;51.90;100347.89;2393994;73;51453;-75
2023/05/15 05:35:43;;;;;;;;;;;;;;;22.49;51.30;100348.27;2327258;76;50121;-76
2023/05/15 05:38:44;;;;;;;;;;;;;;;22.52;51.02;100349.70;2324997;75;50731;-77
2023/05/15 05:41:46;;;;;;;;;;;;;;;22.51;50.93;100334.59;2354654;75;51485;-77
2023/05/15 05:44:48;;;;;;;;;;;;;;;22.55;50.91;100336.61;2356539;75;51337;-74
2023/05/15 05:47:49;;;;;;;;;;;;;;;22.60;51.84;100332.73;2357742;75;51416;-77
2023/05/15 05:50:51;;;;;;;;;;;;;;;22.63;51.53;100334.17;2355033;75;50776;-76
2023/05/15 05:53:53;;;;;;;;;;;;;;;22.73;51.35;100329.13;2355067;75;50788;-75
2023/05/15 05:56:54;;;;;;;;;;;;;;;22.71;51.33;100332.59;2354477;75;50324;-75
2023/05/15 05:59:56;;;;;;;;;;;;;;;22.67;51.66;100333.23;2328008;75;51633;-74
2023/05/15 06:02:58;;;;;;;;;;;;;;;22.61;51.71;100325.50;2355347;74;50683;-76
2023/05/15 06:05:59;;;;;;;;;;;;;;;22.56;51.92;100322.63;2357099;75;50286;-74
2023/05/15 06:09:02;;;;;;;;;;;;;;;22.51;52.10;100325.15;2366569;74;50638;-75
2023/05/15 06:12:06;;;;;;;;;;;;;;;22.49;52.22;100320.48;2368760;74;52675;-75
2023/05/15 06:15:08;;;;;;;;;;;;;;;22.45;52.38;100320.08;2336477;75;22366;-75
2023/05/15 06:18:09;;;;;;;;;;;;;;;22.46;52.47;100320.92;2329771;75;50668;-74
2023/05/15 06:21:11;;;;;;;;;;;;;;;22.43;52.59;100315.45;2354448;74;51503;-74
2023/05/15 06:24:12;;;;;;;;;;;;;;;22.45;52.67;100313.86;2326427;75;52302;-75
2023/05/15 06:27:14;;;;;;;;;;;;;;;22.44;52.69;100308.18;2377318;74;52305;-75
2023/05/15 06:30:15;;;;;;;;;;;;;;;22.44;52.68;100303.61;2350597;75;51281;-76
2023/05/15 06:33:17;;;;;;;;;;;;;;;22.40;52.83;100303.72;2350197;75;51445;-75
2023/05/15 06:36:19;;;;;;;;;;;;;;;22.41;52.89;100295.14;2326349;75;50954;-75
2023/05/15 06:39:20;;;;;;;;;;;;;;;22.38;53.01;100295.88;2354853;75;50629;-75
2023/05/15 06:42:22;;;;;;;;;;;;;;;22.36;53.06;100293.09;2350273;75;51617;-74
2023/05/15 06:45:24;;;;;;;;;;;;;;;22.33;53.12;100287.61;2350627;74;50352;-75
2023/05/15 06:48:25;;;;;;;;;;;;;;;22.35;53.16;100290.07;2354033;75;50639;-75
2023/05/15 06:51:27;;;;;;;;;;;;;;;22.34;53.15;100300.03;2345083;75;50662;-74
2023/05/15 06:54:28;;;;;;;;;;;;;;;22.32;53.21;100285.12;2355375;74;51598;-75
2023/05/15 06:57:30;;;;;;;;;;;;;;;22.33;53.18;100284.09;2350135;74;51493;-76
2023/05/15 07:00:32;;;;;;;;;;;;;;;22.34;53.18;100283.86;2328152;75;52569;-75
2023/05/15 07:03:33;;;;;;;;;;;;;;;22.32;53.25;100288.63;2355856;74;50812;-74
2023/05/15 07:06:36;;;;;;;;;;;;;;;22.34;53.28;100278.47;2354560;75;50771;-76
2023/05/15 07:09:38;;;;;;;;;;;;;;;22.33;53.36;100275.48;2354749;75;50324;-75
2023/05/15 07:12:39;;;;;;;;;;;;;;;22.33;53.38;100282.75;2377519;74;51030;-75
2023/05/15 07:15:41;;;;;;;;;;;;;;;22.36;53.26;100282.30;2349226;75;50363;-75
2023/05/15 07:18:42;;;;;;;;;;;;;;;22.36;53.38;100278.27;2352448;75;50439;-74
2023/05/15 07:21:44;;;;;;;;;;;;;;;22.37;53.29;100275.33;2350309;75;50277;-76
2023/05/15 07:24:46;;;;;;;;;;;;;;;22.42;53.21;100277.38;2339083;75;51154;-76
2023/05/15 07:27:48;;;;;;;;;;;;;;;22.43;53.35;100270.97;2365269;75;51361;-75
2023/05/15 07:30:50;;;;;;;;;;;;;;;22.39;53.13;100265.16;2365119;75;51543;-75
2023/05/15 07:33:51;;;;;;;;;;;;;;;22.37;53.07;100264.55;2365117;75;51539;-73
2023/05/15 07:36:53;;;;;;;;;;;;;;;22.32;53.12;100263.03;2332723;75;51427;-73
2023/05/15 07:39:55;;;;;;;;;;;;;;;22.33;53.06;100266.05;2360189;74;51578;-73
2023/05/15 07:42:57;;;;;;;;;;;;;;;22.30;53.02;100262.44;2365512;74;51491;-73
2023/05/15 07:45:58;;;;;;;;;;;;;;;22.29;53.06;100257.26;2360012;75;50383;-73
2023/05/15 07:49:00;;;;;;;;;;;;;;;22.31;52.97;100258.69;2384649;73;51659;-73
2023/05/15 07:52:02;;;;;;;;;;;;;;;22.28;53.01;100258.31;2354864;75;51425;-73
2023/05/15 07:55:03;;;;;;;;;;;;;;;22.27;53.00;100256.14;2331061;75;51419;-74
2023/05/15 07:58:06;;;;;;;;;;;;;;;22.27;53.05;100252.59;2350087;75;50759;-73
2023/05/15 08:01:08;;;;;;;;;;;;;;;22.26;53.08;100246.39;2377618;74;51589;-73
2023/05/15 08:04:11;;;;;;;;;;;;;;;22.24;53.10;100243.08;2354902;75;50049;-74
2023/05/15 08:07:13;;;;;;;;;;;;;;;22.24;53.17;100243.08;2350244;75;51553;-74
2023/05/15 08:10:14;;;;;;;;;;;;;;;22.24;53.17;100236.34;2350356;75;50666;-75
2023/05/15 08:13:16;;;;;;;;;;;;;;;22.26;53.17;100234.79;2327934;75;50901;-73
2023/05/15 08:16:18;;;;;;;;;;;;;;;22.27;53.20;100230.54;2326570;75;52439;-73
2023/05/15 08:19:20;;;;;;;;;;;;;;;22.25;53.20;100223.19;2354480;75;50685;-74
2023/05/15 08:22:22;;;;;;;;;;;;;;;22.26;53.17;100227.52;2356998;75;50142;-73
2023/05/15 08:25:23;;;;;;;;;;;;;;;22.25;53.23;100227.23;2310214;75;51189;-74
2023/05/15 08:28:25;;;;;;;;;;;;;;;22.26;53.19;100218.62;2355290;75;50100;-72
2023/05/15 08:31:27;;;;;;;;;;;;;;;22.26;53.14;100219.44;2355459;75;50632;-74
2023/05/15 08:34:28;;;;;;;;;;;;;;;22.28;53.11;100217.88;2353616;75;51400;-73
2023/05/15 08:37:32;;;;;;;;;;;;;;;22.26;53.17;100210.53;2353195;75;50649;-75
2023/05/15 08:40:33;;;;;;;;;;;;;;;22.24;53.15;100214.78;2355726;75;22990;-74
2023/05/15 08:43:36;;;;;;;;;;;;;;;22.24;53.16;100210.73;2353463;75;51451;-74
2023/05/15 08:46:37;;;;;;;;;;;;;;;22.23;53.21;100206.41;2353148;75;50316;-73
2023/05/15 08:49:40;;;;;;;;;;;;;;;22.24;53.23;100196.44;2355998;74;50338;-75
2023/05/15 08:52:44;;;;;;;;;;;;;;;22.25;53.23;100198.94;2352369;75;50671;-74
2023/05/15 08:55:45;;;;;;;;;;;;;;;22.27;53.22;100200.04;2354686;75;50671;-74
2023/05/15 08:58:47;;;;;;;;;;;;;;;22.26;53.19;100196.53;2350117;75;51501;-73
2023/05/15 09:01:48;;;;;;;;;;;;;;;22.27;53.16;100196.85;2323003;74;52509;-72
2023/05/15 09:04:50;;;;;;;;;;;;;;;22.26;53.22;100184.92;2357025;75;51489;-73
2023/05/15 09:07:53;;;;;;;;;;;;;;;22.26;53.22;100189.79;2361648;75;50112;-73
2023/05/15 09:10:54;;;;;;;;;;;;;;;22.24;53.25;100182.44;2357753;75;51582;-74
2023/05/15 09:13:59;;;;;;;;;;;;;;;22.25;53.28;100187.33;2387550;74;52294;-73
2023/05/15 09:17:01;;;;;;;;;;;;;;;22.24;53.28;100187.83;2361727;75;50732;-74
2023/05/15 09:20:04;;;;;;;;;;;;;;;22.24;53.31;100193.75;2358348;74;50763;-73
2023/05/15 09:23:08;;;;;;;;;;;;;;;22.23;53.32;100184.84;2359662;75;51472;-74
2023/05/15 09:26:11;;;;;;;;;;;;;;;22.23;53.31;100179.45;2326303;75;52577;-75
2023/05/15 09:29:14;;;;;;;;;;;;;;;22.24;53.30;100178.39;2350227;74;51563;-73
2023/05/15 09:32:17;;;;;;;;;;;;;;;22.24;53.35;100179.74;2349717;75;51506;-78
2023/05/15 09:35:28;;;;;;;;;;;;;;;22.23;53.34;100169.20;2350485;75;50420;-74
2023/05/15 09:38:32;;;;;;;;;;;;;;;22.23;53.36;100170.02;2327779;75;52463;-73
2023/05/15 09:41:33;;;;;;;;;;;;;;;22.21;53.38;100169.41;2350400;75;50476;-73
2023/05/15 09:44:35;;;;;;;;;;;;;;;22.22;53.39;100166.19;2355227;75;50209;-74
2023/05/15 09:47:36;;;;;;;;;;;;;;;22.22;53.39;100166.19;2350003;74;50283;-74
2023/05/15 09:50:38;;;;;;;;;;;;;;;22.22;53.40;100162.99;2332089;75;51677;-73
2023/05/15 09:53:40;;;;;;;;;;;;;;;22.20;53.43;100165.08;2356710;75;51460;-74
2023/05/15 09:56:43;;;;;;;;;;;;;;;22.21;53.41;100163.20;2354645;75;51363;-74
2023/05/15 09:59:45;;;;;;;;;;;;;;;22.21;53.41;100161.32;2354828;75;50261;-73
2023/05/15 10:02:46;;;;;;;;;;;;;;;22.20;53.43;100163.73;2384960;74;52459;-73
2023/05/15 10:05:48;;;;;;;;;;;;;;;22.19;53.45;100164.75;2356481;75;50109;-73
2023/05/15 10:08:53;;;;;;;;;;;;;;;22.20;53.42;100158.34;2354541;75;51491;-74
2023/05/15 10:11:54;;;;;;;;;;;;;;;22.20;53.41;100161.03;2354751;75;52159;-74
2023/05/15 10:14:57;;;;;;;;;;;;;;;22.20;53.41;100162.91;2385029;74;52353;-73
2023/05/15 10:17:59;;;;;;;;;;;;;;;22.19;53.37;100162.05;2356522;75;49973;-73
2023/05/15 10:21:03;;;;;;;;;;;;;;;22.20;53.38;100157.52;2354770;75;51549;-74
2023/05/15 10:24:04;;;;;;;;;;;;;;;22.20;53.40;100155.64;2350664;75;22158;-74
2023/05/15 10:27:05;;;;;;;;;;;;;;;22.20;53.37;100157.52;2326375;75;53558;-73
2023/05/15 10:30:07;;;;;;;;;;;;;;;22.19;53.39;100162.05;2350430;75;51552;-73
2023/05/15 10:33:09;;;;;;;;;;;;;;;22.19;53.39;100153.97;2350385;75;50298;-73
2023/05/15 10:36:11;;;;;;;;;;;;;;;22.19;53.38;100158.02;2354470;75;51562;-74
2023/05/15 10:39:12;;;;;;;;;;;;;;;22.19;53.39;100156.67;2327808;75;51006;-74
2023/05/15 10:42:14;;;;;;;;;;;;;;;22.18;53.41;100150.95;2350471;75;50253;-74
2023/05/15 10:45:15;;;;;;;;;;;;;;;22.18;53.40;100155.81;2350481;75;50219;-74
2023/05/15 10:48:17;;;;;;;;;;;;;;;22.18;53.41;100158.52;2350748;75;50706;-73
2023/05/15 10:51:20;;;;;;;;;;;;;;;22.18;53.38;100148.26;2355181;75;51421;-73
2023/05/15 10:54:22;;;;;;;;;;;;;;;22.18;53.35;100145.56;2350234;75;51447;-74
2023/05/15 10:57:23;;;;;;;;;;;;;;;22.18;53.36;100136.95;2354590;75;51512;-73
2023/05/15 11:00:25;;;;;;;;;;;;;;;22.18;53.35;100131.56;2350206;75;51441;-73
2023/05/15 11:03:37;;;;;;;;;;;;;;;22.19;53.34;100125.68;2326382;75;52528;-73
2023/05/15 11:06:39;;;;;;;;;;;;;;;22.19;53.30;100120.29;2350031;75;51496;-72
2023/05/15 11:09:41;;;;;;;;;;;;;;;22.18;53.27;100107.31;2350079;75;50340;-73
2023/05/15 11:12:50;;;;;;;;;;;;;;;22.20;53.23;100109.83;2355128;75;50401;-74
2023/05/15 11:15:53;;;;;;;;;;;;;;;22.20;53.22;100106.31;2320299;75;52586;-73
2023/05/15 11:18:54;;;;;;;;;;;;;;;22.19;53.19;100104.12;2356635;75;50308;-73
2023/05/15 11:22:09;;;;;;;;;;;;;;;22.19;53.17;100097.38;2355134;75;50408;-74
2023/05/15 11:25:11;;;;;;;;;;;;;;;22.20;53.11;100099.05;2350333;75;50364;-74
2023/05/15 11:28:14;;;;;;;;;;;;;;;22.22;53.02;100092.08;2350094;75;50633;-73
2023/05/15 11:31:16;;;;;;;;;;;;;;;22.22;52.92;100082.14;2350458;75;50715;-73
2023/05/15 11:34:19;;;;;;;;;;;;;;;22.20;52.96;100081.53;2350170;75;51523;-73
2023/05/15 11:37:21;;;;;;;;;;;;;;;22.17;53.04;100081.95;2349570;75;50423;-75
2023/05/15 11:40:26;;;;;;;;;;;;;;;22.13;53.10;100080.73;2326589;75;51737;-73
2023/05/15 11:43:31;;;;;;;;;;;;;;;22.11;53.20;100089.02;2355056;75;49986;-73
2023/05/15 11:46:32;;;;;;;;;;;;;;;22.12;53.16;100077.74;2350219;75;51489;-74
2023/05/15 11:49:34;;;;;;;;;;;;;;;22.12;53.19;100075.87;2355292;75;51430;-74
2023/05/15 11:52:36;;;;;;;;;;;;;;;22.16;53.12;100067.63;2322562;75;52348;-75
2023/05/15 11:55:39;;;;;;;;;;;;;;;22.20;53.05;100069.41;2350163;74;51398;-74
2023/05/15 11:58:41;;;;;;;;;;;;;;;22.21;53.01;100068.35;2344550;75;50285;-74
2023/05/15 12:01:46;;;;;;;;;;;;;;;22.22;52.92;100061.94;2352079;74;51466;-74
2023/05/15 12:04:49;;;;;;;;;;;;;;;22.24;52.85;100064.39;2352019;74;22346;-74
2023/05/15 12:07:51;;;;;;;;;;;;;;;22.19;52.97;100058.31;2357357;75;51556;-74
2023/05/15 12:10:53;;;;;;;;;;;;;;;22.22;52.86;100062.44;2355687;75;50664;-74
2023/05/15 12:13:54;;;;;;;;;;;;;;;22.23;52.84;100060.87;2353593;75;50257;-75
2023/05/15 12:17:01;;;;;;;;;;;;;;;22.21;52.96;100053.53;2322475;75;51710;-74
2023/05/15 12:20:03;;;;;;;;;;;;;;;22.23;52.87;100046.58;2355915;75;50761;-76
2023/05/15 12:23:05;;;;;;;;;;;;;;;22.23;52.87;100043.89;2355253;75;50273;-75
2023/05/15 12:26:07;;;;;;;;;;;;;;;22.20;52.92;100041.64;2356496;75;51632;-75
2023/05/15 12:29:08;;;;;;;;;;;;;;;22.20;52.88;100039.77;2326348;74;52477;-74
2023/05/15 12:32:10;;;;;;;;;;;;;;;22.22;52.87;100031.44;2350362;75;52160;-75
2023/05/15 12:35:12;;;;;;;;;;;;;;;22.21;52.86;100032.50;2350257;75;51472;-75
2023/05/15 12:38:14;;;;;;;;;;;;;;;22.22;52.87;100035.48;2350449;74;50271;-74
2023/05/15 12:41:16;;;;;;;;;;;;;;;22.17;52.95;100034.27;2327881;75;51248;-75
2023/05/15 12:44:17;;;;;;;;;;;;;;;22.20;52.91;100032.21;2350188;75;50419;-75
2023/05/15 12:47:24;;;;;;;;;;;;;;;22.25;52.84;100025.63;2349982;75;50246;-75
2023/05/15 12:50:29;;;;;;;;;;;;;;;22.22;52.90;100021.52;2350002;75;50460;-75
2023/05/15 12:53:30;;;;;;;;;;;;;;;22.25;52.84;100021.59;2351721;74;22429;-75
2023/05/15 12:56:32;;;;;;;;;;;;;;;22.26;52.84;100021.34;2356174;75;51435;-76
2023/05/15 12:59:33;;;;;;;;;;;;;;;22.26;52.89;100017.84;2365231;75;50673;-75
2023/05/15 13:02:35;;;;;;;;;;;;;;;22.28;52.82;100015.22;2365502;75;49958;-75
2023/05/15 13:05:36;;;;;;;;;;;;;;;22.32;52.69;100009.66;2388776;73;51131;-76
2023/05/15 13:08:40;;;;;;;;;;;;;;;22.33;52.65;100005.94;2365172;75;50721;-76
2023/05/15 13:11:44;;;;;;;;;;;;;;;22.34;52.59;99999.48;2365265;75;50691;-74
2023/05/15 13:14:46;;;;;;;;;;;;;;;22.36;52.64;99994.70;2365406;75;50552;-74
2023/05/15 13:17:47;;;;;;;;;;;;;;;22.37;52.55;99994.99;2333027;75;51057;-75
2023/05/15 13:20:54;;;;;;;;;;;;;;;22.36;52.65;99989.84;2365511;74;50628;-75
2023/05/15 13:23:53;;;;;;;;;;;;;;;22.39;52.58;99988.86;2361852;75;22459;-75
2023/05/15 13:26:54;;;;;;;;;;;;;;;22.36;52.67;99989.31;2353132;75;51503;-76
2023/05/15 13:29:56;;;;;;;;;;;;;;;22.37;52.64;99975.30;2378655;74;51187;-75
2023/05/15 13:32:57;;;;;;;;;;;;;;;22.33;52.74;99980.87;2354240;75;50619;-75
2023/05/15 13:35:59;;;;;;;;;;;;;;;22.30;52.78;99974.55;2356294;75;51301;-74
2023/05/15 13:39:01;;;;;;;;;;;;;;;22.28;52.89;99972.63;2356054;75;51463;-75
2023/05/15 13:42:02;;;;;;;;;;;;;;;22.24;52.96;99980.31;2354054;75;51330;-75
2023/05/15 13:45:04;;;;;;;;;;;;;;;22.23;52.98;100002.94;2356332;75;50628;-74
2023/05/15 13:48:06;;;;;;;;;;;;;;;22.24;52.93;99997.83;2354035;75;51555;-74
2023/05/15 13:51:07;;;;;;;;;;;;;;;22.23;52.89;100006.98;2355968;75;51390;-76
2023/05/15 13:54:09;;;;;;;;;;;;;;;22.22;52.90;100024.20;2388671;73;49549;-75
2023/05/15 13:57:11;;;;;;;;;;;;;;;22.23;52.77;100035.80;2355621;74;50252;-74
2023/05/15 14:00:12;;;;;;;;;;;;;;;22.21;52.84;100045.97;2353413;75;50704;-75
2023/05/15 14:03:14;;;;;;;;;;;;;;;22.18;52.83;100051.25;2353573;75;50676;-76
2023/05/15 14:06:16;;;;;;;;;;;;;;;22.15;52.83;100061.13;2385756;74;51163;-76
2023/05/15 14:09:17;;;;;;;;;;;;;;;22.15;52.83;100074.60;2353554;75;50317;-76
2023/05/15 14:12:20;;;;;;;;;;;;;;;22.14;52.79;100083.72;2353701;75;50242;-76
2023/05/15 14:15:22;;;;;;;;;;;;;;;22.17;52.70;100095.42;2355496;75;51550;-75
2023/05/15 14:18:25;;;;;;;;;;;;;;;22.15;52.72;100095.63;2326642;75;49588;-75
2023/05/15 14:21:26;;;;;;;;;;;;;;;22.18;52.71;100091.67;2355639;75;51478;-73
2023/05/15 14:24:28;;;;;;;;;;;;;;;22.21;52.65;100089.09;2352759;75;51496;-76
2023/05/15 14:27:29;;;;;;;;;;;;;;;22.20;52.59;100077.49;2356858;75;53587;-75
2023/05/15 14:30:31;;;;;;;;;;;;;;;22.22;52.62;100087.53;2326150;75;51026;-74
2023/05/15 14:33:33;;;;;;;;;;;;;;;22.21;52.60;100083.70;2354889;75;51496;-74
2023/05/15 14:36:34;;;;;;;;;;;;;;;22.21;52.59;100077.78;2354666;75;51427;-75
2023/05/15 14:39:36;;;;;;;;;;;;;;;22.21;52.56;100073.73;2355016;75;50601;-75
2023/05/15 14:42:37;;;;;;;;;;;;;;;22.23;52.56;100071.66;2377188;74;52281;-75
2023/05/15 14:45:39;;;;;;;;;;;;;;;22.23;52.57;100080.27;2354815;75;51400;-75
2023/05/15 14:48:41;;;;;;;;;;;;;;;22.20;52.50;100065.37;2354087;75;50092;-75
2023/05/15 14:51:42;;;;;;;;;;;;;;;22.21;52.59;100055.41;2358650;73;50356;-73
2023/05/15 14:54:44;;;;;;;;;;;;;;;22.22;52.59;100057.89;2353441;75;50272;-74
2023/05/15 14:57:48;;;;;;;;;;;;;;;22.22;52.57;100059.23;2355261;74;50717;-74
2023/05/15 15:00:49;;;;;;;;;;;;;;;22.22;52.56;100057.89;2355630;74;23024;-75
2023/05/15 15:03:50;;;;;;;;;;;;;;;22.22;52.52;100052.50;2353614;75;51503;-74
2023/05/15 15:06:55;;;;;;;;;;;;;;;22.22;52.52;100056.55;2385725;74;52858;-74
2023/05/15 15:09:55;;;;;;;;;;;;;;;22.24;52.51;100052.27;2355568;75;22268;-74
2023/05/15 15:12:57;;;;;;;;;;;;;;;22.23;52.50;100053.32;2355894;74;50650;-74
2023/05/15 15:15:58;;;;;;;;;;;;;;;22.23;52.48;100050.09;2353533;75;50403;-74
2023/05/15 15:19:00;;;;;;;;;;;;;;;22.24;52.46;100049.56;2385425;74;51674;-74
2023/05/15 15:22:01;;;;;;;;;;;;;;;22.23;52.58;100043.36;2356093;74;51583;-74
2023/05/15 15:25:04;;;;;;;;;;;;;;;22.23;52.58;100052.79;2350398;75;51387;-74
2023/05/15 15:28:06;;;;;;;;;;;;;;;22.23;52.69;100043.89;2349873;75;51544;-74
2023/05/15 15:31:08;;;;;;;;;;;;;;;22.19;52.60;100042.14;2377662;74;50884;-74
2023/05/15 15:34:11;;;;;;;;;;;;;;;22.16;52.64;100039.34;2349895;74;51452;-74
2023/05/15 15:37:12;;;;;;;;;;;;;;;22.16;52.64;100040.68;2354589;75;50303;-74